Terminal Aerodrome Forecast
Issued by NWS Shreveport, LA

Home | Current Version | Previous Version | Text Only | Print | Product List | Glossary On
Versions: 1 2 3 4 5 6 7 8 9 10 11 12 13 14 15
840
FTUS44 KSHV 232348
TAFTXK
TAF
KTXK 232348Z 2400/2424 26006KT P6SM SKC
     FM240200 28008KT P6SM SKC
     FM240300 31009KT P6SM SCT120
     FM241400 29016G25KT P6SM FEW120
     FM241800 31022G29KT P6SM SKC=

USA.gov is the U.S. government's official web portal to all federal, state and local government web resources and services.